sensor_id;sensor_type;location;lat;lon;timestamp;temperature;humidity
56428;DHT22;42331;53.578;9.760;2023-06-22T00:01:37;17.40;99.90
56428;DHT22;42331;53.578;9.760;2023-06-22T00:04:08;17.40;99.90
56428;DHT22;42331;53.578;9.760;2023-06-22T00:06:39;17.40;99.90
56428;DHT22;42331;53.578;9.760;2023-06-22T00:09:09;17.40;99.90
56428;DHT22;42331;53.578;9.760;2023-06-22T00:11:41;17.40;99.90
56428;DHT22;42331;53.578;9.760;2023-06-22T00:14:11;17.40;99.90
56428;DHT22;42331;53.578;9.760;2023-06-22T00:16:42;17.40;99.90
56428;DHT22;42331;53.578;9.760;2023-06-22T00:19:13;17.50;99.90
56428;DHT22;42331;53.578;9.760;2023-06-22T00:21:43;17.50;99.90
56428;DHT22;42331;53.578;9.760;2023-06-22T00:24:17;17.50;99.90
56428;DHT22;42331;53.578;9.760;2023-06-22T00:26:49;17.50;99.90
56428;DHT22;42331;53.578;9.760;2023-06-22T00:29:19;17.50;99.90
56428;DHT22;42331;53.578;9.760;2023-06-22T00:31:50;17.50;99.90
56428;DHT22;42331;53.578;9.760;2023-06-22T00:34:21;17.40;99.90
56428;DHT22;42331;53.578;9.760;2023-06-22T00:36:51;17.40;99.90
56428;DHT22;42331;53.578;9.760;2023-06-22T00:39:22;17.40;99.90
56428;DHT22;42331;53.578;9.760;2023-06-22T00:41:53;17.40;99.90
56428;DHT22;42331;53.578;9.760;2023-06-22T00:44:24;17.30;99.90
56428;DHT22;42331;53.578;9.760;2023-06-22T00:46:54;17.30;99.90
56428;DHT22;42331;53.578;9.760;2023-06-22T00:49:25;17.20;99.90
56428;DHT22;42331;53.578;9.760;2023-06-22T00:51:57;17.20;99.90
56428;DHT22;42331;53.578;9.760;2023-06-22T00:54:28;17.20;99.90
56428;DHT22;42331;53.578;9.760;2023-06-22T00:56:59;17.20;99.90
56428;DHT22;42331;53.578;9.760;2023-06-22T00:59:30;17.10;99.90
56428;DHT22;42331;53.578;9.760;2023-06-22T01:02:03;17.10;99.90
56428;DHT22;42331;53.578;9.760;2023-06-22T01:04:35;17.10;99.90
56428;DHT22;42331;53.578;9.760;2023-06-22T01:10:21;17.10;99.90
56428;DHT22;42331;53.578;9.760;2023-06-22T01:13:01;17.10;99.90
56428;DHT22;42331;53.578;9.760;2023-06-22T01:15:57;17.10;99.90
56428;DHT22;42331;53.578;9.760;2023-06-22T01:18:31;17.00;99.90
56428;DHT22;42331;53.578;9.760;2023-06-22T01:21:06;17.00;99.90
56428;DHT22;42331;53.578;9.760;2023-06-22T01:26:48;17.10;99.90
56428;DHT22;42331;53.578;9.760;2023-06-22T01:29:27;17.10;99.90
56428;DHT22;42331;53.578;9.760;2023-06-22T01:31:59;17.10;99.90
56428;DHT22;42331;53.578;9.760;2023-06-22T01:34:32;17.00;99.90
56428;DHT22;42331;53.578;9.760;2023-06-22T01:37:03;17.00;99.90
56428;DHT22;42331;53.578;9.760;2023-06-22T01:39:34;17.00;99.90
56428;DHT22;42331;53.578;9.760;2023-06-22T01:42:06;17.00;99.90
56428;DHT22;42331;53.578;9.760;2023-06-22T01:44:37;17.10;99.90
56428;DHT22;42331;53.578;9.760;2023-06-22T01:47:08;17.10;99.90
56428;DHT22;42331;53.578;9.760;2023-06-22T01:49:40;17.10;99.90
56428;DHT22;42331;53.578;9.760;2023-06-22T01:52:11;17.00;99.90
56428;DHT22;42331;53.578;9.760;2023-06-22T01:54:42;17.00;99.90
56428;DHT22;42331;53.578;9.760;2023-06-22T01:57:13;17.00;99.90
56428;DHT22;42331;53.578;9.760;2023-06-22T02:00:02;16.90;99.90
56428;DHT22;42331;53.578;9.760;2023-06-22T02:02:42;17.00;99.90
56428;DHT22;42331;53.578;9.760;2023-06-22T02:05:16;16.90;99.90
56428;DHT22;42331;53.578;9.760;2023-06-22T02:08:11;16.90;99.90
56428;DHT22;42331;53.578;9.760;2023-06-22T02:10:45;16.80;99.90
56428;DHT22;42331;53.578;9.760;2023-06-22T02:13:17;16.80;99.90
56428;DHT22;42331;53.578;9.760;2023-06-22T02:15:48;16.80;99.90
56428;DHT22;42331;53.578;9.760;2023-06-22T02:18:19;16.80;99.90
56428;DHT22;42331;53.578;9.760;2023-06-22T02:20:51;16.80;99.90
56428;DHT22;42331;53.578;9.760;2023-06-22T02:23:22;16.70;99.90
56428;DHT22;42331;53.578;9.760;2023-06-22T02:25:53;16.70;99.90
56428;DHT22;42331;53.578;9.760;2023-06-22T02:28:24;16.70;99.90
56428;DHT22;42331;53.578;9.760;2023-06-22T02:30:55;16.70;99.90
56428;DHT22;42331;53.578;9.760;2023-06-22T02:33:25;16.70;99.90
56428;DHT22;42331;53.578;9.760;2023-06-22T02:35:56;16.70;99.90
56428;DHT22;42331;53.578;9.760;2023-06-22T02:38:27;16.80;99.90
56428;DHT22;42331;53.578;9.760;2023-06-22T02:40:58;16.70;99.90
56428;DHT22;42331;53.578;9.760;2023-06-22T02:43:28;16.70;99.90
56428;DHT22;42331;53.578;9.760;2023-06-22T02:45:59;16.70;99.90
56428;DHT22;42331;53.578;9.760;2023-06-22T02:48:30;16.70;99.90
56428;DHT22;42331;53.578;9.760;2023-06-22T02:51:00;16.70;99.90
56428;DHT22;42331;53.578;9.760;2023-06-22T02:53:31;16.60;99.90
56428;DHT22;42331;53.578;9.760;2023-06-22T02:56:03;16.50;99.90
56428;DHT22;42331;53.578;9.760;2023-06-22T02:58:35;16.50;99.90
56428;DHT22;42331;53.578;9.760;2023-06-22T03:01:08;16.50;99.90
56428;DHT22;42331;53.578;9.760;2023-06-22T03:03:40;16.40;99.90
56428;DHT22;42331;53.578;9.760;2023-06-22T03:06:11;16.40;99.90
56428;DHT22;42331;53.578;9.760;2023-06-22T03:08:44;16.30;99.90
56428;DHT22;42331;53.578;9.760;2023-06-22T03:11:15;16.30;99.90
56428;DHT22;42331;53.578;9.760;2023-06-22T03:13:46;16.30;99.90
56428;DHT22;42331;53.578;9.760;2023-06-22T03:16:17;16.30;99.90
56428;DHT22;42331;53.578;9.760;2023-06-22T03:18:47;16.30;99.90
56428;DHT22;42331;53.578;9.760;2023-06-22T03:21:18;16.30;99.90
56428;DHT22;42331;53.578;9.760;2023-06-22T03:23:49;16.30;99.90
56428;DHT22;42331;53.578;9.760;2023-06-22T03:26:20;16.30;99.90
56428;DHT22;42331;53.578;9.760;2023-06-22T03:28:50;16.30;99.90
56428;DHT22;42331;53.578;9.760;2023-06-22T03:31:22;16.40;99.90
56428;DHT22;42331;53.578;9.760;2023-06-22T03:33:53;16.40;99.90
56428;DHT22;42331;53.578;9.760;2023-06-22T03:36:24;16.40;99.90
56428;DHT22;42331;53.578;9.760;2023-06-22T03:38:54;16.40;99.90
56428;DHT22;42331;53.578;9.760;2023-06-22T03:41:25;16.50;99.90
56428;DHT22;42331;53.578;9.760;2023-06-22T03:43:56;16.50;99.90
56428;DHT22;42331;53.578;9.760;2023-06-22T03:46:26;16.50;99.90
56428;DHT22;42331;53.578;9.760;2023-06-22T03:48:57;16.60;99.90
56428;DHT22;42331;53.578;9.760;2023-06-22T03:51:28;16.60;99.90
56428;DHT22;42331;53.578;9.760;2023-06-22T03:53:59;16.60;99.90
56428;DHT22;42331;53.578;9.760;2023-06-22T03:56:29;16.70;99.90
56428;DHT22;42331;53.578;9.760;2023-06-22T03:59:00;16.80;99.90
56428;DHT22;42331;53.578;9.760;2023-06-22T04:01:31;16.80;99.90
56428;DHT22;42331;53.578;9.760;2023-06-22T04:04:01;16.90;99.90
56428;DHT22;42331;53.578;9.760;2023-06-22T04:06:32;16.90;99.90
56428;DHT22;42331;53.578;9.760;2023-06-22T04:09:05;17.00;99.90
56428;DHT22;42331;53.578;9.760;2023-06-22T04:11:36;17.10;99.90
56428;DHT22;42331;53.578;9.760;2023-06-22T04:14:07;17.20;99.90
56428;DHT22;42331;53.578;9.760;2023-06-22T04:16:38;17.30;99.90
56428;DHT22;42331;53.578;9.760;2023-06-22T04:19:08;17.30;99.90
56428;DHT22;42331;53.578;9.760;2023-06-22T04:24:57;17.30;99.90
56428;DHT22;42331;53.578;9.760;2023-06-22T04:27:28;17.40;99.90
56428;DHT22;42331;53.578;9.760;2023-06-22T04:29:58;17.50;99.90
56428;DHT22;42331;53.578;9.760;2023-06-22T04:32:30;17.50;99.90
56428;DHT22;42331;53.578;9.760;2023-06-22T04:35:02;17.50;99.90
56428;DHT22;42331;53.578;9.760;2023-06-22T04:37:35;17.60;99.90
56428;DHT22;42331;53.578;9.760;2023-06-22T04:40:06;17.70;99.90
56428;DHT22;42331;53.578;9.760;2023-06-22T04:42:39;17.70;99.90
56428;DHT22;42331;53.578;9.760;2023-06-22T04:45:12;17.70;99.90
56428;DHT22;42331;53.578;9.760;2023-06-22T04:47:43;17.80;99.90
56428;DHT22;42331;53.578;9.760;2023-06-22T04:50:15;17.80;99.90
56428;DHT22;42331;53.578;9.760;2023-06-22T04:52:48;17.90;99.90
56428;DHT22;42331;53.578;9.760;2023-06-22T04:55:19;17.90;99.90
56428;DHT22;42331;53.578;9.760;2023-06-22T04:57:50;17.90;99.90
56428;DHT22;42331;53.578;9.760;2023-06-22T05:00:21;17.90;99.90
56428;DHT22;42331;53.578;9.760;2023-06-22T05:02:58;17.90;99.90
56428;DHT22;42331;53.578;9.760;2023-06-22T05:05:29;18.00;99.90
56428;DHT22;42331;53.578;9.760;2023-06-22T05:08:01;18.10;99.90
56428;DHT22;42331;53.578;9.760;2023-06-22T05:10:31;18.10;99.90
56428;DHT22;42331;53.578;9.760;2023-06-22T05:13:02;18.10;99.90
56428;DHT22;42331;53.578;9.760;2023-06-22T05:15:33;18.10;99.90
56428;DHT22;42331;53.578;9.760;2023-06-22T05:18:18;18.20;99.90
56428;DHT22;42331;53.578;9.760;2023-06-22T05:21:01;18.40;99.90
56428;DHT22;42331;53.578;9.760;2023-06-22T05:23:31;18.50;99.90
56428;DHT22;42331;53.578;9.760;2023-06-22T05:26:02;18.60;99.90
56428;DHT22;42331;53.578;9.760;2023-06-22T05:28:33;18.70;99.90
56428;DHT22;42331;53.578;9.760;2023-06-22T05:31:03;18.70;99.90
56428;DHT22;42331;53.578;9.760;2023-06-22T05:33:34;18.70;99.90
56428;DHT22;42331;53.578;9.760;2023-06-22T05:36:05;18.80;99.90
56428;DHT22;42331;53.578;9.760;2023-06-22T05:38:36;19.00;99.90
56428;DHT22;42331;53.578;9.760;2023-06-22T05:41:07;19.00;99.90
56428;DHT22;42331;53.578;9.760;2023-06-22T05:43:41;19.10;99.90
56428;DHT22;42331;53.578;9.760;2023-06-22T05:46:13;19.20;99.90
56428;DHT22;42331;53.578;9.760;2023-06-22T05:48:44;19.30;99.90
56428;DHT22;42331;53.578;9.760;2023-06-22T05:56:20;19.40;99.90
56428;DHT22;42331;53.578;9.760;2023-06-22T05:58:51;19.60;99.90
56428;DHT22;42331;53.578;9.760;2023-06-22T06:01:22;19.50;99.90
56428;DHT22;42331;53.578;9.760;2023-06-22T06:03:53;19.60;99.90
56428;DHT22;42331;53.578;9.760;2023-06-22T06:06:26;19.70;99.90
56428;DHT22;42331;53.578;9.760;2023-06-22T06:08:59;19.80;99.90
56428;DHT22;42331;53.578;9.760;2023-06-22T06:11:32;19.90;99.90
56428;DHT22;42331;53.578;9.760;2023-06-22T06:14:03;20.10;99.90
56428;DHT22;42331;53.578;9.760;2023-06-22T06:16:37;20.30;99.90
56428;DHT22;42331;53.578;9.760;2023-06-22T06:19:14;20.30;99.90
56428;DHT22;42331;53.578;9.760;2023-06-22T06:21:45;20.30;99.90
56428;DHT22;42331;53.578;9.760;2023-06-22T06:24:16;20.30;99.90
56428;DHT22;42331;53.578;9.760;2023-06-22T06:26:47;20.40;99.90
56428;DHT22;42331;53.578;9.760;2023-06-22T06:29:18;20.40;99.90
56428;DHT22;42331;53.578;9.760;2023-06-22T06:31:51;20.40;99.90
56428;DHT22;42331;53.578;9.760;2023-06-22T06:34:22;20.40;99.90
56428;DHT22;42331;53.578;9.760;2023-06-22T06:36:53;20.40;99.90
56428;DHT22;42331;53.578;9.760;2023-06-22T06:39:24;20.20;99.90
56428;DHT22;42331;53.578;9.760;2023-06-22T06:41:55;20.10;99.90
56428;DHT22;42331;53.578;9.760;2023-06-22T06:44:26;20.10;99.90
56428;DHT22;42331;53.578;9.760;2023-06-22T06:46:57;20.20;99.90
56428;DHT22;42331;53.578;9.760;2023-06-22T06:49:28;20.20;99.90
56428;DHT22;42331;53.578;9.760;2023-06-22T06:52:02;20.30;99.90
56428;DHT22;42331;53.578;9.760;2023-06-22T06:54:33;20.30;99.90
56428;DHT22;42331;53.578;9.760;2023-06-22T06:57:04;20.40;99.90
56428;DHT22;42331;53.578;9.760;2023-06-22T06:59:34;20.60;99.90
56428;DHT22;42331;53.578;9.760;2023-06-22T07:02:05;20.60;99.90
56428;DHT22;42331;53.578;9.760;2023-06-22T07:04:38;20.70;99.90
56428;DHT22;42331;53.578;9.760;2023-06-22T07:07:12;20.80;99.90
56428;DHT22;42331;53.578;9.760;2023-06-22T07:10:01;21.00;99.90
56428;DHT22;42331;53.578;9.760;2023-06-22T07:12:32;21.20;99.90
56428;DHT22;42331;53.578;9.760;2023-06-22T07:15:08;21.30;99.90
56428;DHT22;42331;53.578;9.760;2023-06-22T07:17:43;21.50;99.90
56428;DHT22;42331;53.578;9.760;2023-06-22T07:20:13;21.60;99.90
56428;DHT22;42331;53.578;9.760;2023-06-22T07:22:44;21.60;99.90
56428;DHT22;42331;53.578;9.760;2023-06-22T07:25:15;21.90;99.90
56428;DHT22;42331;53.578;9.760;2023-06-22T07:27:58;22.10;99.90
56428;DHT22;42331;53.578;9.760;2023-06-22T07:30:30;21.90;99.90
56428;DHT22;42331;53.578;9.760;2023-06-22T07:33:01;22.00;99.90
56428;DHT22;42331;53.578;9.760;2023-06-22T07:35:33;22.10;99.90
56428;DHT22;42331;53.578;9.760;2023-06-22T07:38:04;22.20;99.90
56428;DHT22;42331;53.578;9.760;2023-06-22T07:40:38;22.30;99.90
56428;DHT22;42331;53.578;9.760;2023-06-22T07:43:09;22.40;99.90
56428;DHT22;42331;53.578;9.760;2023-06-22T07:45:39;22.40;99.90
56428;DHT22;42331;53.578;9.760;2023-06-22T07:48:11;22.40;99.90
56428;DHT22;42331;53.578;9.760;2023-06-22T07:50:41;22.40;99.90
56428;DHT22;42331;53.578;9.760;2023-06-22T07:53:12;22.60;99.90
56428;DHT22;42331;53.578;9.760;2023-06-22T07:55:43;22.70;99.90
56428;DHT22;42331;53.578;9.760;2023-06-22T07:58:13;22.60;99.90
56428;DHT22;42331;53.578;9.760;2023-06-22T08:00:44;22.70;99.90
56428;DHT22;42331;53.578;9.760;2023-06-22T08:03:15;23.00;99.90
56428;DHT22;42331;53.578;9.760;2023-06-22T08:05:46;23.00;99.90
56428;DHT22;42331;53.578;9.760;2023-06-22T08:08:17;23.00;99.90
56428;DHT22;42331;53.578;9.760;2023-06-22T08:10:47;23.10;99.90
56428;DHT22;42331;53.578;9.760;2023-06-22T08:13:18;23.20;99.90
56428;DHT22;42331;53.578;9.760;2023-06-22T08:15:50;23.20;99.90
56428;DHT22;42331;53.578;9.760;2023-06-22T08:18:23;23.10;99.90
56428;DHT22;42331;53.578;9.760;2023-06-22T08:20:54;23.10;99.90
56428;DHT22;42331;53.578;9.760;2023-06-22T08:23:24;23.20;99.90
56428;DHT22;42331;53.578;9.760;2023-06-22T08:25:55;23.30;99.90
56428;DHT22;42331;53.578;9.760;2023-06-22T08:28:31;23.10;99.90
56428;DHT22;42331;53.578;9.760;2023-06-22T08:31:03;23.10;99.90
56428;DHT22;42331;53.578;9.760;2023-06-22T08:33:34;23.30;99.90
56428;DHT22;42331;53.578;9.760;2023-06-22T08:36:05;23.40;99.90
56428;DHT22;42331;53.578;9.760;2023-06-22T08:38:36;23.50;99.90
56428;DHT22;42331;53.578;9.760;2023-06-22T08:41:07;23.50;99.90
56428;DHT22;42331;53.578;9.760;2023-06-22T08:43:38;23.30;99.90
56428;DHT22;42331;53.578;9.760;2023-06-22T08:46:13;23.00;99.90
56428;DHT22;42331;53.578;9.760;2023-06-22T08:48:43;22.90;99.90
56428;DHT22;42331;53.578;9.760;2023-06-22T08:51:20;23.20;99.90
56428;DHT22;42331;53.578;9.760;2023-06-22T08:53:51;23.40;99.90
56428;DHT22;42331;53.578;9.760;2023-06-22T08:56:21;23.60;99.90
56428;DHT22;42331;53.578;9.760;2023-06-22T08:58:52;23.80;99.90
56428;DHT22;42331;53.578;9.760;2023-06-22T09:01:23;24.10;99.90
56428;DHT22;42331;53.578;9.760;2023-06-22T09:03:54;24.10;99.90
56428;DHT22;42331;53.578;9.760;2023-06-22T09:06:28;24.00;99.90
56428;DHT22;42331;53.578;9.760;2023-06-22T09:09:04;24.10;99.90
56428;DHT22;42331;53.578;9.760;2023-06-22T09:11:35;24.10;99.90
56428;DHT22;42331;53.578;9.760;2023-06-22T09:14:08;24.20;99.90
56428;DHT22;42331;53.578;9.760;2023-06-22T09:16:39;24.40;99.90
56428;DHT22;42331;53.578;9.760;2023-06-22T09:19:10;24.60;99.90
56428;DHT22;42331;53.578;9.760;2023-06-22T09:21:41;24.70;99.90
56428;DHT22;42331;53.578;9.760;2023-06-22T09:24:11;24.80;99.90
56428;DHT22;42331;53.578;9.760;2023-06-22T09:26:42;24.80;99.90
56428;DHT22;42331;53.578;9.760;2023-06-22T09:29:13;24.60;99.90
56428;DHT22;42331;53.578;9.760;2023-06-22T09:31:44;24.60;99.90
56428;DHT22;42331;53.578;9.760;2023-06-22T09:34:15;24.60;99.90
56428;DHT22;42331;53.578;9.760;2023-06-22T09:36:46;24.60;99.90
56428;DHT22;42331;53.578;9.760;2023-06-22T09:39:18;24.80;99.90
56428;DHT22;42331;53.578;9.760;2023-06-22T09:42:15;25.20;99.90
56428;DHT22;42331;53.578;9.760;2023-06-22T09:44:54;25.40;99.90
56428;DHT22;42331;53.578;9.760;2023-06-22T09:47:25;25.10;99.90
56428;DHT22;42331;53.578;9.760;2023-06-22T09:49:56;25.60;99.90
56428;DHT22;42331;53.578;9.760;2023-06-22T09:52:29;25.80;99.90
56428;DHT22;42331;53.578;9.760;2023-06-22T09:55:00;26.00;99.90
56428;DHT22;42331;53.578;9.760;2023-06-22T09:57:37;26.20;99.90
56428;DHT22;42331;53.578;9.760;2023-06-22T10:00:08;26.00;99.90
56428;DHT22;42331;53.578;9.760;2023-06-22T10:02:44;26.00;99.90
56428;DHT22;42331;53.578;9.760;2023-06-22T10:05:20;26.40;99.90
56428;DHT22;42331;53.578;9.760;2023-06-22T10:07:51;26.40;99.90
56428;DHT22;42331;53.578;9.760;2023-06-22T10:10:22;26.60;99.90
56428;DHT22;42331;53.578;9.760;2023-06-22T10:13:02;26.30;99.90
56428;DHT22;42331;53.578;9.760;2023-06-22T10:15:36;26.30;99.90
56428;DHT22;42331;53.578;9.760;2023-06-22T10:18:07;26.00;99.90
56428;DHT22;42331;53.578;9.760;2023-06-22T10:20:51;25.60;99.90
56428;DHT22;42331;53.578;9.760;2023-06-22T10:23:34;25.90;99.90
56428;DHT22;42331;53.578;9.760;2023-06-22T10:26:04;26.80;99.90
56428;DHT22;42331;53.578;9.760;2023-06-22T10:28:35;28.20;99.90
56428;DHT22;42331;53.578;9.760;2023-06-22T10:31:06;28.50;99.90
56428;DHT22;42331;53.578;9.760;2023-06-22T10:33:36;28.00;99.90
56428;DHT22;42331;53.578;9.760;2023-06-22T10:36:07;27.20;99.90
56428;DHT22;42331;53.578;9.760;2023-06-22T10:38:40;26.50;99.90
56428;DHT22;42331;53.578;9.760;2023-06-22T10:41:11;26.90;99.90
56428;DHT22;42331;53.578;9.760;2023-06-22T10:43:50;27.30;99.90
56428;DHT22;42331;53.578;9.760;2023-06-22T10:46:21;28.10;99.90
56428;DHT22;42331;53.578;9.760;2023-06-22T10:49:01;29.40;99.90
56428;DHT22;42331;53.578;9.760;2023-06-22T10:51:40;29.50;99.90
56428;DHT22;42331;53.578;9.760;2023-06-22T10:54:19;28.90;99.90
56428;DHT22;42331;53.578;9.760;2023-06-22T10:56:50;29.10;99.90
56428;DHT22;42331;53.578;9.760;2023-06-22T10:59:21;29.60;99.90
56428;DHT22;42331;53.578;9.760;2023-06-22T11:01:55;29.60;99.90
56428;DHT22;42331;53.578;9.760;2023-06-22T11:04:25;29.20;99.90
56428;DHT22;42331;53.578;9.760;2023-06-22T11:06:56;28.50;99.90
56428;DHT22;42331;53.578;9.760;2023-06-22T11:09:27;28.40;99.90
56428;DHT22;42331;53.578;9.760;2023-06-22T11:11:58;27.50;99.90
56428;DHT22;42331;53.578;9.760;2023-06-22T11:14:29;26.80;99.90
56428;DHT22;42331;53.578;9.760;2023-06-22T11:17:00;26.70;99.90
56428;DHT22;42331;53.578;9.760;2023-06-22T11:19:31;26.60;99.90
56428;DHT22;42331;53.578;9.760;2023-06-22T11:22:04;26.40;99.90
56428;DHT22;42331;53.578;9.760;2023-06-22T11:24:35;26.40;99.90
56428;DHT22;42331;53.578;9.760;2023-06-22T11:27:06;26.70;99.90
56428;DHT22;42331;53.578;9.760;2023-06-22T11:29:37;26.90;99.90
56428;DHT22;42331;53.578;9.760;2023-06-22T11:32:09;27.40;99.90
56428;DHT22;42331;53.578;9.760;2023-06-22T11:34:40;27.60;99.90
56428;DHT22;42331;53.578;9.760;2023-06-22T11:37:13;27.40;99.90
56428;DHT22;42331;53.578;9.760;2023-06-22T11:39:45;27.30;99.90
56428;DHT22;42331;53.578;9.760;2023-06-22T11:42:19;26.90;99.90
56428;DHT22;42331;53.578;9.760;2023-06-22T11:44:49;26.60;99.90
56428;DHT22;42331;53.578;9.760;2023-06-22T11:47:20;26.50;99.90
56428;DHT22;42331;53.578;9.760;2023-06-22T11:49:51;26.80;99.90
56428;DHT22;42331;53.578;9.760;2023-06-22T11:52:27;26.90;99.90
56428;DHT22;42331;53.578;9.760;2023-06-22T11:54:58;26.70;99.90
56428;DHT22;42331;53.578;9.760;2023-06-22T11:57:30;26.70;99.90
56428;DHT22;42331;53.578;9.760;2023-06-22T12:00:00;26.30;99.90
56428;DHT22;42331;53.578;9.760;2023-06-22T12:02:31;26.60;99.90
56428;DHT22;42331;53.578;9.760;2023-06-22T12:05:04;26.90;99.90
56428;DHT22;42331;53.578;9.760;2023-06-22T12:07:38;27.00;99.90
56428;DHT22;42331;53.578;9.760;2023-06-22T12:10:09;26.80;99.90
56428;DHT22;42331;53.578;9.760;2023-06-22T12:12:41;26.70;99.90
56428;DHT22;42331;53.578;9.760;2023-06-22T12:15:11;27.00;99.90
56428;DHT22;42331;53.578;9.760;2023-06-22T12:17:42;27.10;99.90
56428;DHT22;42331;53.578;9.760;2023-06-22T12:20:13;27.20;99.90
56428;DHT22;42331;53.578;9.760;2023-06-22T12:22:44;27.00;99.90
56428;DHT22;42331;53.578;9.760;2023-06-22T12:25:15;26.80;99.90
56428;DHT22;42331;53.578;9.760;2023-06-22T12:27:46;26.70;99.90
56428;DHT22;42331;53.578;9.760;2023-06-22T12:30:17;26.50;99.90
56428;DHT22;42331;53.578;9.760;2023-06-22T12:32:47;26.70;99.90
56428;DHT22;42331;53.578;9.760;2023-06-22T12:35:18;26.70;99.90
56428;DHT22;42331;53.578;9.760;2023-06-22T12:37:49;26.40;99.90
56428;DHT22;42331;53.578;9.760;2023-06-22T12:40:19;26.50;99.90
56428;DHT22;42331;53.578;9.760;2023-06-22T12:42:50;26.50;99.90
56428;DHT22;42331;53.578;9.760;2023-06-22T12:45:21;26.50;99.90
56428;DHT22;42331;53.578;9.760;2023-06-22T12:47:51;26.60;99.90
56428;DHT22;42331;53.578;9.760;2023-06-22T12:50:22;26.50;99.90
56428;DHT22;42331;53.578;9.760;2023-06-22T12:52:53;26.90;99.90
56428;DHT22;42331;53.578;9.760;2023-06-22T12:55:23;26.90;99.90
56428;DHT22;42331;53.578;9.760;2023-06-22T12:57:54;26.80;99.90
56428;DHT22;42331;53.578;9.760;2023-06-22T13:00:25;26.80;99.90
56428;DHT22;42331;53.578;9.760;2023-06-22T13:02:55;26.70;99.90
56428;DHT22;42331;53.578;9.760;2023-06-22T13:05:26;26.60;99.90
56428;DHT22;42331;53.578;9.760;2023-06-22T13:07:57;26.40;99.90
56428;DHT22;42331;53.578;9.760;2023-06-22T13:10:28;26.50;99.90
56428;DHT22;42331;53.578;9.760;2023-06-22T13:12:58;26.90;99.90
56428;DHT22;42331;53.578;9.760;2023-06-22T13:15:31;26.90;99.90
56428;DHT22;42331;53.578;9.760;2023-06-22T13:18:01;26.90;99.90
56428;DHT22;42331;53.578;9.760;2023-06-22T13:20:32;27.00;99.90
56428;DHT22;42331;53.578;9.760;2023-06-22T13:23:03;27.00;99.90
56428;DHT22;42331;53.578;9.760;2023-06-22T13:25:33;27.20;99.90
56428;DHT22;42331;53.578;9.760;2023-06-22T13:28:04;27.40;99.90
56428;DHT22;42331;53.578;9.760;2023-06-22T13:30:35;27.10;99.90
56428;DHT22;42331;53.578;9.760;2023-06-22T13:33:06;27.00;99.90
56428;DHT22;42331;53.578;9.760;2023-06-22T13:35:37;26.80;99.90
56428;DHT22;42331;53.578;9.760;2023-06-22T13:38:09;26.80;99.90
56428;DHT22;42331;53.578;9.760;2023-06-22T13:40:39;26.80;99.90
56428;DHT22;42331;53.578;9.760;2023-06-22T13:43:16;26.80;99.90
56428;DHT22;42331;53.578;9.760;2023-06-22T13:45:50;26.70;99.90
56428;DHT22;42331;53.578;9.760;2023-06-22T13:48:21;26.60;99.90
56428;DHT22;42331;53.578;9.760;2023-06-22T13:50:58;26.40;99.90
56428;DHT22;42331;53.578;9.760;2023-06-22T13:53:32;26.40;99.90
56428;DHT22;42331;53.578;9.760;2023-06-22T13:56:03;26.40;99.90
56428;DHT22;42331;53.578;9.760;2023-06-22T13:58:43;26.30;99.90
56428;DHT22;42331;53.578;9.760;2023-06-22T14:01:19;26.20;99.90
56428;DHT22;42331;53.578;9.760;2023-06-22T14:03:58;26.30;99.90
56428;DHT22;42331;53.578;9.760;2023-06-22T14:06:32;26.40;99.90
56428;DHT22;42331;53.578;9.760;2023-06-22T14:09:03;26.50;99.90
56428;DHT22;42331;53.578;9.760;2023-06-22T14:11:43;26.60;99.90
56428;DHT22;42331;53.578;9.760;2023-06-22T14:14:13;26.80;99.90
56428;DHT22;42331;53.578;9.760;2023-06-22T14:16:50;26.90;99.90
56428;DHT22;42331;53.578;9.760;2023-06-22T14:19:23;26.80;99.90
56428;DHT22;42331;53.578;9.760;2023-06-22T14:21:54;26.70;99.90
56428;DHT22;42331;53.578;9.760;2023-06-22T14:24:25;26.60;99.90
56428;DHT22;42331;53.578;9.760;2023-06-22T14:26:56;26.60;99.90
56428;DHT22;42331;53.578;9.760;2023-06-22T14:29:51;26.50;99.90
56428;DHT22;42331;53.578;9.760;2023-06-22T14:32:53;26.40;99.90
56428;DHT22;42331;53.578;9.760;2023-06-22T14:35:27;26.30;99.90
56428;DHT22;42331;53.578;9.760;2023-06-22T14:37:57;26.30;99.90
56428;DHT22;42331;53.578;9.760;2023-06-22T14:40:28;26.20;99.90
56428;DHT22;42331;53.578;9.760;2023-06-22T14:43:02;26.00;99.90
56428;DHT22;42331;53.578;9.760;2023-06-22T14:45:41;25.90;99.90
56428;DHT22;42331;53.578;9.760;2023-06-22T14:48:15;25.90;99.90
56428;DHT22;42331;53.578;9.760;2023-06-22T14:50:45;25.80;99.90
56428;DHT22;42331;53.578;9.760;2023-06-22T14:53:26;25.80;99.90
56428;DHT22;42331;53.578;9.760;2023-06-22T14:56:03;25.80;99.90
56428;DHT22;42331;53.578;9.760;2023-06-22T14:59:01;25.70;99.90
56428;DHT22;42331;53.578;9.760;2023-06-22T15:02:12;25.60;99.90
56428;DHT22;42331;53.578;9.760;2023-06-22T15:05:18;25.20;99.90
56428;DHT22;42331;53.578;9.760;2023-06-22T15:07:49;24.70;99.90
56428;DHT22;42331;53.578;9.760;2023-06-22T15:10:19;24.40;99.90
56428;DHT22;42331;53.578;9.760;2023-06-22T15:12:50;24.00;99.90
56428;DHT22;42331;53.578;9.760;2023-06-22T15:15:21;23.80;99.90
56428;DHT22;42331;53.578;9.760;2023-06-22T15:17:52;23.70;99.90
56428;DHT22;42331;53.578;9.760;2023-06-22T15:20:23;23.60;99.90
56428;DHT22;42331;53.578;9.760;2023-06-22T15:22:53;23.60;99.90
56428;DHT22;42331;53.578;9.760;2023-06-22T15:25:24;23.50;99.90
56428;DHT22;42331;53.578;9.760;2023-06-22T15:27:55;23.60;99.90
56428;DHT22;42331;53.578;9.760;2023-06-22T15:30:25;23.50;99.90
56428;DHT22;42331;53.578;9.760;2023-06-22T15:32:57;23.50;99.90
56428;DHT22;42331;53.578;9.760;2023-06-22T15:35:28;23.60;99.90
56428;DHT22;42331;53.578;9.760;2023-06-22T15:37:58;23.60;99.90
56428;DHT22;42331;53.578;9.760;2023-06-22T15:40:30;23.70;99.90
56428;DHT22;42331;53.578;9.760;2023-06-22T15:43:01;23.80;99.90
56428;DHT22;42331;53.578;9.760;2023-06-22T15:45:31;23.80;99.90
56428;DHT22;42331;53.578;9.760;2023-06-22T15:48:02;23.90;99.90
56428;DHT22;42331;53.578;9.760;2023-06-22T15:50:33;24.00;99.90
56428;DHT22;42331;53.578;9.760;2023-06-22T15:53:04;24.00;99.90
56428;DHT22;42331;53.578;9.760;2023-06-22T15:55:34;24.10;99.90
56428;DHT22;42331;53.578;9.760;2023-06-22T15:58:07;24.10;99.90
56428;DHT22;42331;53.578;9.760;2023-06-22T16:00:37;24.20;99.90
56428;DHT22;42331;53.578;9.760;2023-06-22T16:03:08;24.20;99.90
56428;DHT22;42331;53.578;9.760;2023-06-22T16:05:39;24.30;99.90
56428;DHT22;42331;53.578;9.760;2023-06-22T16:08:10;24.40;99.90
56428;DHT22;42331;53.578;9.760;2023-06-22T16:10:44;24.40;99.90
56428;DHT22;42331;53.578;9.760;2023-06-22T16:13:14;24.50;99.90
56428;DHT22;42331;53.578;9.760;2023-06-22T16:15:46;24.50;99.90
56428;DHT22;42331;53.578;9.760;2023-06-22T16:18:17;24.50;99.90